createdAt,value
2017-09-20T00:00:22.939Z,87.1
2017-09-20T00:01:25.446Z,87.2
2017-09-20T00:02:30.206Z,87.0
2017-09-20T00:03:31.862Z,87.2
2017-09-20T00:04:34.074Z,87.1
2017-09-20T00:05:37.153Z,86.9
2017-09-20T00:06:41.330Z,86.8
2017-09-20T00:07:46.956Z,86.8
2017-09-20T00:08:50.796Z,86.7
2017-09-20T00:09:54.106Z,86.8
2017-09-20T00:10:59.619Z,86.8
2017-09-20T00:12:04.017Z,87.0
2017-09-20T00:13:09.130Z,86.6
2017-09-20T00:14:10.800Z,86.4
2017-09-20T00:15:13.990Z,86.5
2017-09-20T00:16:18.971Z,86.5
2017-09-20T00:17:21.121Z,86.6
2017-09-20T00:18:24.859Z,86.6
2017-09-20T00:19:24.996Z,86.7
2017-09-20T00:20:28.957Z,86.5
2017-09-20T00:21:30.608Z,86.6
2017-09-20T00:22:32.956Z,86.7
2017-09-20T00:23:35.109Z,86.7
2017-09-20T00:24:38.156Z,86.6
2017-09-20T00:25:42.962Z,86.6
2017-09-20T00:26:47.182Z,86.1
2017-09-20T00:27:51.928Z,86.0
2017-09-20T00:28:57.865Z,86.5
2017-09-20T00:30:01.682Z,86.4
2017-09-20T00:31:03.948Z,86.4
2017-09-20T00:32:08.172Z,86.5
2017-09-20T00:33:09.821Z,86.5
2017-09-20T00:34:11.976Z,85.9
2017-09-20T00:35:15.419Z,86.1
2017-09-20T00:36:17.073Z,86.2
2017-09-20T00:37:20.478Z,86.2
2017-09-20T00:38:22.879Z,86.3
2017-09-20T00:39:25.081Z,86.0
2017-09-20T00:40:30.494Z,85.8
2017-09-20T00:41:35.449Z,86.1
2017-09-20T00:42:37.989Z,85.6
2017-09-20T00:43:41.296Z,85.9
2017-09-20T00:44:46.089Z,85.8
2017-09-20T00:45:50.081Z,86.1
2017-09-20T00:46:54.691Z,85.1
2017-09-20T00:47:58.001Z,85.1
2017-09-20T00:49:01.562Z,85.3
2017-09-20T00:50:03.207Z,84.8
2017-09-20T00:51:07.602Z,85.1
2017-09-20T00:52:09.860Z,85.3
2017-09-20T00:53:12.908Z,85.3
2017-09-20T00:54:15.193Z,85.3
2017-09-20T00:55:19.861Z,84.6
2017-09-20T00:56:21.607Z,84.7
2017-09-20T00:57:23.259Z,84.8
2017-09-20T00:58:27.366Z,84.7
2017-09-20T00:59:31.860Z,84.6
2017-09-20T01:00:35.436Z,85.1
2017-09-20T01:01:39.539Z,85.4
2017-09-20T01:02:41.197Z,85.4
2017-09-20T01:03:44.462Z,85.6
2017-09-20T01:04:48.824Z,85.0
2017-09-20T01:05:51.208Z,84.8
2017-09-20T01:06:54.858Z,84.9
2017-09-20T01:07:56.595Z,84.9
2017-09-20T01:08:59.157Z,84.8
2017-09-20T01:10:02.558Z,84.8
2017-09-20T01:11:06.438Z,84.6
2017-09-20T01:12:08.103Z,84.5
2017-09-20T01:13:11.486Z,84.1
2017-09-20T01:14:14.882Z,84.1
2017-09-20T01:15:17.404Z,84.0
2017-09-20T01:16:20.703Z,83.7
2017-09-20T01:17:24.052Z,84.1
2017-09-20T01:18:28.128Z,84.1
2017-09-20T01:19:31.047Z,84.1
2017-09-20T01:20:34.195Z,83.9
2017-09-20T01:21:36.733Z,84.1
2017-09-20T01:22:41.472Z,84.0
2017-09-20T01:23:44.478Z,84.3
2017-09-20T01:24:47.064Z,84.1
2017-09-20T01:25:50.415Z,83.5
2017-09-20T01:26:54.368Z,83.4
2017-09-20T01:27:59.153Z,83.5
2017-09-20T01:29:04.011Z,83.0
2017-09-20T01:30:07.244Z,83.0
2017-09-20T01:31:10.870Z,83.3
2017-09-20T01:32:14.843Z,82.8
2017-09-20T01:33:17.916Z,82.7
2017-09-20T01:34:21.364Z,82.8
2017-09-20T01:35:24.364Z,82.6
2017-09-20T01:36:25.263Z,82.7
2017-09-20T01:37:29.444Z,83.0
2017-09-20T01:38:32.565Z,82.8
2017-09-20T01:39:36.030Z,82.6
2017-09-20T01:40:39.108Z,82.6
2017-09-20T01:41:41.618Z,82.0
2017-09-20T01:42:44.131Z,82.3
2017-09-20T01:43:47.432Z,82.4
2017-09-20T01:44:49.084Z,82.5
2017-09-20T01:45:53.409Z,81.8
2017-09-20T01:46:56.443Z,81.0
2017-09-20T01:47:59.473Z,81.6
2017-09-20T01:49:04.369Z,81.8
2017-09-20T01:50:07.861Z,82.2
2017-09-20T01:51:09.521Z,82.1
2017-09-20T01:52:14.549Z,83.1
2017-09-20T01:53:18.864Z,81.8
2017-09-20T01:54:21.414Z,82.2
2017-09-20T02:01:06.961Z,83.0
2017-09-20T02:02:10.807Z,82.2
2017-09-20T02:03:14.697Z,83.0
2017-09-20T02:04:19.063Z,82.6
2017-09-20T02:05:21.685Z,82.9
2017-09-20T02:06:24.034Z,82.8
2017-09-20T02:07:28.034Z,82.3
2017-09-20T02:08:30.189Z,82.6
2017-09-20T02:09:33.207Z,82.4
2017-09-20T02:10:36.565Z,82.4
2017-09-20T02:11:40.213Z,82.2
2017-09-20T02:12:46.640Z,82.4
2017-09-20T02:13:49.778Z,82.3
2017-09-20T02:14:54.821Z,81.5
2017-09-20T02:15:58.959Z,82.3
2017-09-20T02:16:59.625Z,82.4
2017-09-20T02:18:04.459Z,82.5
2017-09-20T02:19:06.808Z,82.2
2017-09-20T02:20:09.032Z,82.3
2017-09-20T02:21:11.274Z,82.3
2017-09-20T02:22:17.185Z,82.1
2017-09-20T02:23:19.759Z,82.3
2017-09-20T02:24:24.102Z,82.2
2017-09-20T02:25:28.079Z,82.1
2017-09-20T02:26:32.539Z,82.6
2017-09-20T02:27:37.580Z,82.8
2017-09-20T02:28:39.957Z,83.4
2017-09-20T02:29:42.269Z,83.2
2017-09-20T02:30:47.217Z,82.9
2017-09-20T02:31:52.573Z,83.2
2017-09-20T02:32:54.228Z,82.5
2017-09-20T02:33:56.513Z,82.2
2017-09-20T02:34:59.043Z,82.7
2017-09-20T02:36:01.440Z,82.6
2017-09-20T02:37:03.100Z,82.6
2017-09-20T02:38:05.539Z,82.7
2017-09-20T02:39:10.025Z,82.0
2017-09-20T02:40:13.865Z,82.6
2017-09-20T02:41:17.802Z,81.9
2017-09-20T02:42:20.616Z,82.4
2017-09-20T02:43:22.266Z,82.0
2017-09-20T02:44:25.492Z,81.9
2017-09-20T02:45:28.461Z,82.1
2017-09-20T02:46:31.075Z,81.7
2017-09-20T02:47:35.072Z,81.6
2017-09-20T02:48:39.461Z,81.0
2017-09-20T02:49:41.145Z,81.4
2017-09-20T02:50:43.587Z,81.7
2017-09-20T02:51:45.228Z,81.1
2017-09-20T02:52:49.523Z,81.4
2017-09-20T02:53:54.466Z,81.2
2017-09-20T02:54:57.039Z,81.7
2017-09-20T02:56:02.688Z,81.3
2017-09-20T02:57:05.625Z,81.3
2017-09-20T02:58:08.961Z,81.7
2017-09-20T02:59:09.839Z,81.5
2017-09-20T03:00:13.569Z,81.0
2017-09-20T03:01:15.811Z,81.4
2017-09-20T03:02:21.962Z,80.8
2017-09-20T03:03:25.121Z,81.3
2017-09-20T03:04:29.511Z,80.8
2017-09-20T03:05:32.072Z,80.6
2017-09-20T03:06:35.076Z,80.8
2017-09-20T03:07:39.086Z,80.2
2017-09-20T03:08:40.733Z,80.4
2017-09-20T03:09:44.069Z,80.3
2017-09-20T03:10:47.110Z,80.4
2017-09-20T03:11:49.680Z,80.2
2017-09-20T03:12:51.977Z,80.2
2017-09-20T03:13:56.100Z,80.4
2017-09-20T03:14:57.753Z,80.0
2017-09-20T03:16:00.991Z,80.0
2017-09-20T03:17:04.054Z,79.9
2017-09-20T03:18:06.464Z,80.4
2017-09-20T03:19:09.965Z,80.5
2017-09-20T03:20:15.480Z,80.4
2017-09-20T03:21:19.126Z,79.9
2017-09-20T03:22:24.115Z,80.4
2017-09-20T03:23:28.089Z,80.1
2017-09-20T03:24:29.741Z,80.1
2017-09-20T03:25:33.027Z,80.3
2017-09-20T03:26:36.517Z,80.4
2017-09-20T03:27:38.172Z,80.5
2017-09-20T03:28:40.310Z,80.4
2017-09-20T03:29:43.753Z,79.8
2017-09-20T03:30:47.131Z,80.1
2017-09-20T03:31:50.084Z,80.6
2017-09-20T03:32:53.496Z,80.4
2017-09-20T03:33:56.834Z,80.1
2017-09-20T03:34:59.675Z,80.0
2017-09-20T03:36:04.204Z,80.4
2017-09-20T03:37:09.170Z,79.8
2017-09-20T03:38:12.656Z,80.1
2017-09-20T03:39:14.304Z,80.5
2017-09-20T03:40:16.644Z,80.4
2017-09-20T03:41:19.834Z,79.9
2017-09-20T03:42:22.326Z,80.7
2017-09-20T03:43:25.193Z,80.0
2017-09-20T03:44:27.758Z,80.8
2017-09-20T03:45:32.133Z,80.7
2017-09-20T03:46:36.962Z,80.8
2017-09-20T03:47:38.965Z,80.3
2017-09-20T03:48:43.031Z,80.4
2017-09-20T03:49:46.979Z,80.0
2017-09-20T03:50:50.241Z,80.1
2017-09-20T03:51:52.682Z,80.0
2017-09-20T03:52:55.706Z,80.0
2017-09-20T03:53:57.363Z,79.9
2017-09-20T03:55:00.961Z,80.2
2017-09-20T03:56:03.062Z,79.9
2017-09-20T03:57:04.711Z,79.8
2017-09-20T03:58:08.363Z,79.7
2017-09-20T03:59:10.018Z,80.1
2017-09-20T04:00:13.984Z,80.1
2017-09-20T04:01:18.962Z,80.1
2017-09-20T04:02:22.132Z,80.1
2017-09-20T04:03:24.521Z,79.9
2017-09-20T04:04:26.690Z,80.3
2017-09-20T04:05:30.075Z,80.1
2017-09-20T04:06:31.738Z,80.3
2017-09-20T04:07:34.055Z,80.7
2017-09-20T04:08:37.462Z,80.4
2017-09-20T04:09:38.824Z,80.7
2017-09-20T04:10:42.755Z,80.7
2017-09-20T04:11:47.109Z,80.7
2017-09-20T04:12:49.741Z,80.2
2017-09-20T04:13:51.986Z,80.2
2017-09-20T04:14:54.176Z,80.7
2017-09-20T04:15:56.698Z,80.7
2017-09-20T04:16:59.077Z,80.5
2017-09-20T04:18:02.787Z,80.0
2017-09-20T04:19:07.255Z,79.9
2017-09-20T04:20:11.081Z,80.0
2017-09-20T04:21:14.111Z,80.5
2017-09-20T04:22:17.283Z,80.1
2017-09-20T04:23:21.003Z,80.4
2017-09-20T04:24:23.462Z,80.2
2017-09-20T04:25:25.859Z,79.9
2017-09-20T04:26:29.466Z,80.2
2017-09-20T04:27:31.831Z,79.2
2017-09-20T04:28:34.334Z,79.8
2017-09-20T04:29:36.009Z,79.1
2017-09-20T04:30:40.070Z,79.5
2017-09-20T04:31:47.965Z,79.0
2017-09-20T04:33:13.966Z,78.7
2017-09-20T04:34:15.385Z,78.2
2017-09-20T04:35:19.107Z,78.2
2017-09-20T04:36:21.565Z,77.6
2017-09-20T04:37:23.970Z,77.3
2017-09-20T04:38:27.589Z,77.1
2017-09-20T04:39:30.829Z,76.8
2017-09-20T04:40:34.702Z,76.1
2017-09-20T04:41:37.657Z,76.4
2017-09-20T04:42:42.110Z,75.8
2017-09-20T04:43:44.706Z,75.9
2017-09-20T04:44:47.853Z,75.6
2017-09-20T04:45:51.567Z,75.2
2017-09-20T04:46:54.352Z,74.6
2017-09-20T04:47:57.134Z,74.6
2017-09-20T04:48:59.714Z,73.9
2017-09-20T04:50:01.370Z,73.1
2017-09-20T04:51:08.102Z,72.3
2017-09-20T04:52:11.273Z,72.2
2017-09-20T04:53:14.587Z,71.5
2017-09-20T04:54:18.589Z,70.4
2017-09-20T04:55:21.781Z,69.7
2017-09-20T04:56:24.181Z,69.4
2017-09-20T04:57:28.585Z,68.7
2017-09-20T04:58:35.664Z,68.6
2017-09-20T04:59:40.234Z,67.8
2017-09-20T05:00:44.975Z,67.2
2017-09-20T05:01:45.922Z,65.9
2017-09-20T05:02:50.468Z,65.6
2017-09-20T05:03:52.034Z,65.4
2017-09-20T05:04:54.902Z,66.0
2017-09-20T05:05:58.018Z,66.3
2017-09-20T05:07:01.966Z,66.9
2017-09-20T05:08:03.758Z,66.6
2017-09-20T05:09:05.415Z,65.2
2017-09-20T05:10:09.466Z,65.6
2017-09-20T05:11:10.973Z,65.4
2017-09-20T05:12:15.198Z,65.1
2017-09-20T05:13:18.633Z,65.2
2017-09-20T05:14:22.577Z,64.8
2017-09-20T05:15:24.226Z,65.5
2017-09-20T05:16:28.104Z,65.8
2017-09-20T05:17:36.205Z,65.3
2017-09-20T05:18:40.474Z,64.6
2017-09-20T05:19:48.542Z,64.9
2017-09-20T05:21:04.645Z,63.5
2017-09-20T05:22:07.127Z,64.4
2017-09-20T05:23:10.093Z,64.8
2017-09-20T05:24:12.358Z,65.1
2017-09-20T05:25:15.219Z,64.6
2017-09-20T05:26:18.971Z,64.1
2017-09-20T05:27:23.586Z,64.4
2017-09-20T05:28:30.098Z,62.4
2017-09-20T05:29:31.754Z,62.5
2017-09-20T05:30:38.550Z,61.8
2017-09-20T05:31:44.130Z,61.5
2017-09-20T05:32:46.362Z,61.1
2017-09-20T05:33:50.308Z,61.7
2017-09-20T05:34:53.534Z,61.3
2017-09-20T05:35:58.502Z,61.1
2017-09-20T05:37:02.172Z,62.5
2017-09-20T05:38:05.266Z,62.6
2017-09-20T05:39:07.348Z,63.1
2017-09-20T05:40:10.555Z,63.6
2017-09-20T05:41:13.424Z,64.1
2017-09-20T05:42:19.013Z,63.9
2017-09-20T05:43:21.556Z,63.1
2017-09-20T05:44:23.705Z,61.9
2017-09-20T05:45:25.368Z,61.0
2017-09-20T05:46:29.468Z,60.9
2017-09-20T05:47:31.088Z,61.1
2017-09-20T05:48:35.072Z,61.5
2017-09-20T05:49:37.695Z,61.2
2017-09-20T05:50:39.996Z,61.8
2017-09-20T05:51:43.974Z,61.7
2017-09-20T05:52:49.235Z,62.1
2017-09-20T05:53:51.891Z,61.9
2017-09-20T05:54:55.207Z,61.8
2017-09-20T05:55:59.711Z,61.7
2017-09-20T06:01:57.114Z,62.4
2017-09-20T10:01:33.103Z,96.8
2017-09-20T10:02:37.155Z,96.6
2017-09-20T10:03:42.004Z,97.1
2017-09-20T10:04:43.695Z,98.3
2017-09-20T10:05:47.673Z,98.0
2017-09-20T10:06:51.038Z,97.8
2017-09-20T10:07:55.526Z,96.2
2017-09-20T10:08:57.870Z,95.6
2017-09-20T10:10:00.808Z,96.8
2017-09-20T10:11:04.632Z,93.8
2017-09-20T10:12:07.712Z,93.2
2017-09-20T10:13:10.635Z,93.1
2017-09-20T10:14:15.077Z,93.3
2017-09-20T10:15:20.506Z,97.3
2017-09-20T10:16:22.966Z,96.0
2017-09-20T10:17:27.594Z,96.7
2017-09-20T10:18:29.259Z,98.3
2017-09-20T10:19:31.535Z,96.8
2017-09-20T10:20:37.488Z,96.4
2017-09-20T10:21:41.846Z,98.6
2017-09-20T10:22:45.726Z,97.1
2017-09-20T10:23:49.032Z,98.7
2017-09-20T10:24:52.788Z,98.8
2017-09-20T10:25:57.570Z,95.2
2017-09-20T10:27:01.959Z,95.5
2017-09-20T10:28:06.942Z,93.8
2017-09-20T10:29:10.739Z,96.9
2017-09-20T10:30:12.736Z,97.8
2017-09-20T10:31:19.135Z,100.0
2017-09-20T10:32:26.193Z,98.4
2017-09-20T10:33:31.482Z,98.3
2017-09-20T10:34:38.608Z,99.2
2017-09-20T10:35:43.517Z,100.0
2017-09-20T10:36:47.569Z,100.0
2017-09-20T10:37:49.981Z,98.7
2017-09-20T10:38:54.103Z,100.0
2017-09-20T10:39:55.837Z,99.5
2017-09-20T10:40:59.012Z,100.0
2017-09-20T10:42:00.212Z,99.9
2017-09-20T10:43:04.509Z,99.0
2017-09-20T10:44:07.573Z,100.0
2017-09-20T10:45:11.163Z,100.0
2017-09-20T10:46:14.094Z,100.0
2017-09-20T10:47:17.574Z,100.0
2017-09-20T10:48:19.292Z,99.9
2017-09-20T10:49:22.005Z,100.0
2017-09-20T10:50:23.820Z,100.0
2017-09-20T10:51:26.544Z,100.0
2017-09-20T10:52:29.917Z,100.0
2017-09-20T10:53:33.461Z,100.0
2017-09-20T10:54:36.987Z,100.0
2017-09-20T10:55:41.149Z,100.0
2017-09-20T10:56:43.796Z,100.0
2017-09-20T10:57:47.871Z,100.0
2017-09-20T10:58:52.021Z,100.0
2017-09-20T11:00:07.018Z,100.0
2017-09-20T11:01:10.577Z,100.0
2017-09-20T11:02:16.008Z,100.0
2017-09-20T11:03:18.698Z,100.0
2017-09-20T11:04:23.217Z,100.0
2017-09-20T11:05:27.539Z,100.0
2017-09-20T11:06:39.599Z,100.0
2017-09-20T11:07:55.033Z,100.0
2017-09-20T11:09:00.179Z,100.0
2017-09-20T11:10:02.745Z,100.0
2017-09-20T11:11:06.489Z,100.0
2017-09-20T11:12:10.133Z,100.0
2017-09-20T11:13:16.365Z,100.0
2017-09-20T11:14:17.905Z,100.0
2017-09-20T11:15:21.239Z,100.0
2017-09-20T11:16:23.071Z,100.0
2017-09-20T11:17:26.384Z,100.0
2017-09-20T11:18:35.544Z,100.0
2017-09-20T11:19:36.577Z,100.0
2017-09-20T11:20:38.358Z,100.0
2017-09-20T11:21:41.670Z,100.0
2017-09-20T11:22:46.271Z,100.0
2017-09-20T11:23:50.055Z,100.0
2017-09-20T11:24:52.323Z,100.0
2017-09-20T11:25:54.971Z,100.0
2017-09-20T11:26:58.361Z,100.0
2017-09-20T11:28:00.915Z,100.0
2017-09-20T11:29:05.162Z,100.0
2017-09-20T11:30:07.719Z,100.0
2017-09-20T11:31:13.259Z,100.0
2017-09-20T11:32:15.725Z,100.0
2017-09-20T11:33:18.710Z,100.0
2017-09-20T11:34:22.944Z,100.0
2017-09-20T11:35:25.543Z,100.0
2017-09-20T11:36:27.569Z,100.0
2017-09-20T11:37:30.997Z,100.0
2017-09-20T11:38:32.757Z,100.0
2017-09-20T11:39:35.084Z,100.0
2017-09-20T11:40:40.145Z,100.0
2017-09-20T11:41:42.678Z,100.0
2017-09-20T11:42:45.930Z,100.0
2017-09-20T11:43:54.325Z,100.0
2017-09-20T11:45:10.869Z,100.0
2017-09-20T11:46:16.979Z,100.0
2017-09-20T11:47:21.197Z,100.0
2017-09-20T11:48:28.982Z,100.0
2017-09-20T11:49:31.807Z,100.0
2017-09-20T11:50:35.729Z,100.0
2017-09-20T11:51:37.684Z,100.0
2017-09-20T11:52:41.167Z,100.0
2017-09-20T11:53:45.983Z,100.0
2017-09-20T11:54:48.521Z,100.0
2017-09-20T11:55:52.371Z,100.0
2017-09-20T11:56:54.281Z,100.0
2017-09-20T11:57:56.760Z,100.0
2017-09-20T11:58:59.313Z,100.0
2017-09-20T12:00:04.189Z,100.0
2017-09-20T12:01:07.441Z,100.0
2017-09-20T12:02:10.838Z,100.0
2017-09-20T12:03:13.173Z,100.0
2017-09-20T12:04:17.821Z,100.0
2017-09-20T12:05:21.336Z,100.0
2017-09-20T12:06:23.569Z,100.0
2017-09-20T12:07:27.718Z,100.0
2017-09-20T12:08:31.736Z,100.0
2017-09-20T12:09:34.023Z,100.0
2017-09-20T12:10:38.208Z,100.0
2017-09-20T12:11:45.535Z,100.0
2017-09-20T12:12:48.326Z,100.0
2017-09-20T12:13:51.159Z,100.0
2017-09-20T12:14:54.453Z,100.0
2017-09-20T12:15:58.944Z,100.0
2017-09-20T12:17:02.309Z,100.0
2017-09-20T12:18:08.536Z,100.0
2017-09-20T12:19:12.070Z,100.0
2017-09-20T12:20:20.207Z,100.0
2017-09-20T12:21:23.811Z,100.0
2017-09-20T12:22:28.486Z,100.0
2017-09-20T12:23:32.244Z,100.0
2017-09-20T12:24:36.157Z,100.0
2017-09-20T12:25:41.199Z,100.0
2017-09-20T12:26:45.940Z,100.0
2017-09-20T12:27:48.814Z,100.0
2017-09-20T12:28:51.424Z,100.0
2017-09-20T12:29:55.261Z,100.0
2017-09-20T12:30:58.886Z,100.0
2017-09-20T12:32:02.113Z,100.0
2017-09-20T12:33:05.438Z,100.0
2017-09-20T12:34:09.142Z,98.8
2017-09-20T12:35:13.099Z,100.0
2017-09-20T12:36:15.084Z,100.0
2017-09-20T12:37:19.234Z,100.0
2017-09-20T12:38:26.128Z,100.0
2017-09-20T12:39:30.495Z,100.0
2017-09-20T12:40:34.318Z,100.0
2017-09-20T12:41:37.960Z,100.0
2017-09-20T12:42:40.725Z,100.0
2017-09-20T12:43:47.001Z,100.0
2017-09-20T12:44:52.181Z,100.0
2017-09-20T12:45:54.925Z,100.0
2017-09-20T12:46:59.564Z,100.0
2017-09-20T12:48:02.974Z,100.0
2017-09-20T12:49:05.118Z,100.0
2017-09-20T12:50:08.202Z,100.0
2017-09-20T12:51:11.211Z,100.0
2017-09-20T12:52:12.997Z,100.0
2017-09-20T12:53:14.817Z,100.0
2017-09-20T12:54:16.842Z,100.0
2017-09-20T12:55:18.606Z,100.0
2017-09-20T12:56:23.341Z,100.0
2017-09-20T12:57:25.542Z,100.0
2017-09-20T12:58:27.760Z,100.0
2017-09-20T12:59:29.673Z,100.0
2017-09-20T13:00:31.355Z,100.0
2017-09-20T13:01:33.293Z,100.0
2017-09-20T13:02:35.725Z,100.0
2017-09-20T13:03:37.510Z,100.0
2017-09-20T13:04:41.103Z,100.0
2017-09-20T13:05:47.659Z,100.0
2017-09-20T13:06:53.066Z,100.0
2017-09-20T13:08:00.793Z,100.0
2017-09-20T13:09:06.186Z,100.0
2017-09-20T13:10:12.509Z,100.0
2017-09-20T13:11:16.682Z,100.0
2017-09-20T13:12:26.835Z,100.0
2017-09-20T13:13:29.049Z,100.0
2017-09-20T13:14:30.832Z,100.0
2017-09-20T13:15:32.698Z,100.0
2017-09-20T13:16:36.158Z,100.0
2017-09-20T13:17:38.513Z,100.0
2017-09-20T13:18:40.299Z,100.0
2017-09-20T13:19:42.351Z,100.0
2017-09-20T13:20:44.161Z,100.0
2017-09-20T13:21:45.903Z,100.0
2017-09-20T13:22:48.816Z,100.0
2017-09-20T13:23:50.581Z,98.7
2017-09-20T13:24:53.431Z,96.9
2017-09-20T13:25:55.471Z,95.5
2017-09-20T13:26:57.564Z,94.0
2017-09-20T13:28:01.990Z,95.1
2017-09-20T13:29:04.691Z,97.6
2017-09-20T13:30:06.469Z,98.6
2017-09-20T13:31:08.730Z,99.5
2017-09-20T13:32:10.646Z,100.0
2017-09-20T13:33:13.063Z,99.4
2017-09-20T13:34:14.895Z,96.1
2017-09-20T13:35:23.576Z,94.3
2017-09-20T13:36:25.042Z,96.1
2017-09-20T13:37:27.162Z,95.9
2017-09-20T13:38:28.943Z,97.7
2017-09-20T13:39:30.663Z,98.9
2017-09-20T13:40:33.133Z,100.0
2017-09-20T13:41:40.364Z,100.0
2017-09-20T13:42:44.919Z,100.0
2017-09-20T13:43:47.741Z,100.0
2017-09-20T13:44:49.492Z,100.0
2017-09-20T13:45:51.482Z,100.0
2017-09-20T13:46:53.282Z,100.0
2017-09-20T13:47:55.686Z,100.0
2017-09-20T13:48:57.457Z,100.0
2017-09-20T13:49:59.864Z,100.0
2017-09-20T13:51:01.905Z,100.0
2017-09-20T13:52:04.191Z,100.0
2017-09-20T13:53:05.914Z,100.0
2017-09-20T13:54:08.194Z,100.0
2017-09-20T13:55:09.968Z,100.0
2017-09-20T14:01:00.960Z,100.0
2017-09-20T14:02:02.632Z,100.0
2017-09-20T14:03:05.068Z,100.0
2017-09-20T14:04:06.822Z,100.0
2017-09-20T14:05:08.490Z,100.0
2017-09-20T14:06:10.156Z,100.0
2017-09-20T14:07:12.354Z,100.0
2017-09-20T14:08:14.492Z,100.0
2017-09-20T14:09:16.173Z,100.0
2017-09-20T14:10:18.347Z,100.0
2017-09-20T14:11:20.011Z,100.0
2017-09-20T14:12:22.378Z,100.0
2017-09-20T14:13:24.048Z,100.0
2017-09-20T14:14:25.829Z,100.0
2017-09-20T14:15:27.518Z,100.0
2017-09-20T14:16:29.224Z,100.0
2017-09-20T14:17:31.293Z,100.0
2017-09-20T14:18:33.047Z,100.0
2017-09-20T14:19:34.757Z,100.0
2017-09-20T14:20:36.445Z,100.0
2017-09-20T14:21:38.107Z,100.0
2017-09-20T14:22:39.796Z,100.0
2017-09-20T14:23:44.260Z,100.0
2017-09-20T14:24:45.934Z,100.0
2017-09-20T14:25:47.599Z,100.0
2017-09-20T14:26:49.266Z,100.0
2017-09-20T14:27:50.952Z,100.0
2017-09-20T14:28:52.619Z,100.0
2017-09-20T14:29:54.314Z,100.0
2017-09-20T14:30:55.976Z,100.0
2017-09-20T14:31:57.688Z,100.0
2017-09-20T14:32:59.370Z,100.0
2017-09-20T14:34:01.044Z,100.0
2017-09-20T14:35:02.724Z,100.0
2017-09-20T14:36:04.424Z,100.0
2017-09-20T14:37:06.116Z,100.0
2017-09-20T14:38:07.793Z,100.0
2017-09-20T14:39:09.469Z,100.0
2017-09-20T14:40:11.165Z,100.0
2017-09-20T14:41:12.879Z,100.0
2017-09-20T14:42:14.576Z,100.0
2017-09-20T14:43:16.238Z,100.0
2017-09-20T14:44:17.918Z,100.0
2017-09-20T14:45:19.583Z,100.0
2017-09-20T14:46:21.245Z,100.0
2017-09-20T14:47:22.907Z,100.0
2017-09-20T14:48:24.601Z,100.0
2017-09-20T14:49:26.307Z,100.0
2017-09-20T14:50:27.933Z,100.0
2017-09-20T14:51:29.607Z,100.0
2017-09-20T14:52:31.271Z,100.0
2017-09-20T14:53:32.961Z,100.0
2017-09-20T14:54:34.654Z,100.0
2017-09-20T14:55:36.333Z,100.0
2017-09-20T14:56:38.004Z,100.0
2017-09-20T14:57:39.678Z,100.0
2017-09-20T14:58:41.368Z,100.0
2017-09-20T14:59:43.085Z,100.0
2017-09-20T15:00:44.756Z,100.0
2017-09-20T15:01:46.430Z,100.0
2017-09-20T15:02:48.098Z,100.0
2017-09-20T15:03:49.772Z,100.0
2017-09-20T15:04:51.441Z,100.0
2017-09-20T15:05:53.169Z,100.0
2017-09-20T15:06:54.854Z,100.0
2017-09-20T15:07:56.518Z,100.0
2017-09-20T15:08:58.198Z,100.0
2017-09-20T15:10:00.023Z,100.0
2017-09-20T15:11:02.351Z,100.0
2017-09-20T15:12:04.023Z,100.0
2017-09-20T15:13:05.739Z,100.0
2017-09-20T15:14:07.462Z,100.0
2017-09-20T15:15:09.121Z,100.0
2017-09-20T15:16:10.789Z,100.0
2017-09-20T15:17:12.479Z,100.0
2017-09-20T15:18:14.146Z,100.0
2017-09-20T15:19:15.839Z,100.0
2017-09-20T15:20:17.518Z,100.0
2017-09-20T15:21:19.289Z,100.0
2017-09-20T15:22:20.967Z,100.0
2017-09-20T15:23:22.662Z,100.0
2017-09-20T15:24:24.340Z,100.0
2017-09-20T15:25:26.001Z,100.0
2017-09-20T15:26:27.669Z,100.0
2017-09-20T15:27:29.342Z,100.0
2017-09-20T15:28:31.002Z,100.0
2017-09-20T15:29:32.672Z,100.0
2017-09-20T15:30:34.352Z,100.0
2017-09-20T15:31:36.034Z,100.0
2017-09-20T15:32:37.713Z,100.0
2017-09-20T15:33:39.386Z,100.0
2017-09-20T15:34:41.080Z,100.0
2017-09-20T15:35:42.798Z,100.0
2017-09-20T15:36:48.594Z,100.0
2017-09-20T15:37:55.208Z,100.0
2017-09-20T15:38:56.880Z,100.0
2017-09-20T15:39:58.554Z,100.0
2017-09-20T15:41:00.249Z,100.0
2017-09-20T15:42:01.910Z,100.0
2017-09-20T15:43:03.587Z,100.0
2017-09-20T15:44:05.388Z,100.0
2017-09-20T15:45:07.098Z,100.0
2017-09-20T15:46:08.753Z,100.0
2017-09-20T15:47:10.433Z,100.0
2017-09-20T15:48:12.101Z,100.0
2017-09-20T15:49:13.820Z,100.0
2017-09-20T15:50:15.491Z,100.0
2017-09-20T15:51:17.148Z,100.0
2017-09-20T15:52:18.811Z,100.0
2017-09-20T15:53:20.742Z,100.0
2017-09-20T15:54:22.418Z,100.0
2017-09-20T15:55:24.079Z,100.0
2017-09-20T15:56:25.754Z,100.0
2017-09-20T15:57:27.442Z,100.0
2017-09-20T15:58:29.111Z,100.0
2017-09-20T15:59:30.778Z,100.0
2017-09-20T16:00:32.446Z,100.0
2017-09-20T16:01:34.211Z,100.0
2017-09-20T16:02:35.893Z,100.0
2017-09-20T16:03:37.566Z,100.0
2017-09-20T16:04:39.245Z,100.0
2017-09-20T16:05:40.983Z,100.0
2017-09-20T16:06:42.654Z,100.0
2017-09-20T16:07:44.443Z,100.0
2017-09-20T16:08:46.102Z,100.0
2017-09-20T16:09:47.763Z,100.0
2017-09-20T16:10:49.429Z,100.0
2017-09-20T16:11:51.091Z,100.0
2017-09-20T16:12:52.761Z,100.0
2017-09-20T16:13:54.434Z,100.0
2017-09-20T16:14:56.104Z,100.0
2017-09-20T16:15:57.777Z,100.0
2017-09-20T16:16:59.439Z,100.0
2017-09-20T16:18:01.106Z,100.0
2017-09-20T16:19:02.785Z,100.0
2017-09-20T16:20:04.449Z,100.0
2017-09-20T16:21:06.109Z,100.0
2017-09-20T16:22:07.771Z,100.0
2017-09-20T16:23:09.442Z,100.0
2017-09-20T16:24:11.124Z,100.0
2017-09-20T16:25:12.802Z,100.0
2017-09-20T16:26:14.457Z,100.0
2017-09-20T16:27:16.131Z,100.0
2017-09-20T16:28:17.845Z,100.0
2017-09-20T16:29:19.499Z,100.0
2017-09-20T16:30:21.172Z,100.0
2017-09-20T16:31:22.853Z,100.0
2017-09-20T16:32:24.543Z,100.0
2017-09-20T16:33:26.217Z,100.0
2017-09-20T16:34:27.871Z,100.0
2017-09-20T16:35:29.564Z,100.0
2017-09-20T16:36:31.224Z,100.0
2017-09-20T16:37:32.899Z,100.0
2017-09-20T16:38:34.572Z,100.0
2017-09-20T16:39:36.244Z,100.0
2017-09-20T16:40:37.913Z,100.0
2017-09-20T16:41:39.576Z,100.0
2017-09-20T16:42:41.239Z,100.0
2017-09-20T16:43:42.910Z,100.0
2017-09-20T16:44:44.588Z,100.0
2017-09-20T16:45:46.307Z,100.0
2017-09-20T16:46:47.969Z,100.0
2017-09-20T16:47:49.635Z,100.0
2017-09-20T16:48:51.301Z,100.0
2017-09-20T16:49:52.961Z,100.0
2017-09-20T16:50:54.628Z,100.0
2017-09-20T16:51:56.300Z,100.0
2017-09-20T16:52:57.965Z,99.7
2017-09-20T16:53:59.623Z,98.2
2017-09-20T16:55:01.282Z,98.3
2017-09-20T16:56:02.957Z,97.6
2017-09-20T16:57:04.755Z,95.0
2017-09-20T16:58:06.419Z,94.7
2017-09-20T16:59:08.085Z,93.9
2017-09-20T17:00:09.925Z,93.1
2017-09-20T17:01:11.590Z,92.3
2017-09-20T17:02:13.260Z,90.9
2017-09-20T17:03:15.122Z,89.9
2017-09-20T17:04:16.767Z,89.2
2017-09-20T17:05:18.444Z,87.8
2017-09-20T17:06:20.332Z,86.4
2017-09-20T17:07:22.009Z,86.0
2017-09-20T17:08:23.658Z,86.4
2017-09-20T17:09:25.413Z,85.6
2017-09-20T17:10:27.077Z,84.8
2017-09-20T17:11:28.928Z,85.7
2017-09-20T17:12:30.594Z,84.5
2017-09-20T17:13:32.622Z,85.5
2017-09-20T17:14:34.342Z,83.4
2017-09-20T17:15:36.016Z,83.6
2017-09-20T17:16:39.707Z,83.0
2017-09-20T17:17:41.964Z,81.6
2017-09-20T17:18:43.624Z,80.5
2017-09-20T17:19:46.088Z,79.6
2017-09-20T17:20:47.754Z,79.0
2017-09-20T17:21:49.566Z,79.3
2017-09-20T17:22:51.472Z,78.8
2017-09-20T17:23:53.142Z,77.9
2017-09-20T17:24:55.173Z,77.8
2017-09-20T17:25:56.874Z,77.1
2017-09-20T17:26:58.673Z,76.3
2017-09-20T17:28:00.350Z,76.0
2017-09-20T17:29:02.013Z,76.6
2017-09-20T17:30:04.333Z,76.2
2017-09-20T17:31:05.987Z,75.3
2017-09-20T17:32:07.649Z,74.7
2017-09-20T17:33:09.309Z,75.0
2017-09-20T17:34:10.991Z,75.6
2017-09-20T17:35:12.745Z,73.5
2017-09-20T17:36:14.449Z,72.6
2017-09-20T17:37:16.125Z,73.6
2017-09-20T17:38:18.078Z,73.6
2017-09-20T17:39:19.740Z,72.7
2017-09-20T17:40:21.402Z,73.2
2017-09-20T17:41:23.072Z,73.5
2017-09-20T17:42:24.722Z,73.2
2017-09-20T17:43:26.388Z,73.1
2017-09-20T17:44:30.074Z,73.0
2017-09-20T17:45:31.523Z,73.3
2017-09-20T17:46:33.476Z,72.6
2017-09-20T17:47:35.127Z,72.9
2017-09-20T17:48:36.782Z,72.9
2017-09-20T17:49:38.737Z,72.8
2017-09-20T17:50:40.383Z,72.4
2017-09-20T17:51:42.063Z,72.5
2017-09-20T17:52:44.163Z,71.7
2017-09-20T17:53:45.830Z,71.9
2017-09-20T17:54:47.484Z,72.5
2017-09-20T17:55:49.536Z,71.9
2017-09-20T18:01:50.010Z,70.7
2017-09-20T18:02:51.669Z,70.1
2017-09-20T18:03:53.475Z,69.7
2017-09-20T18:04:55.143Z,70.0
2017-09-20T18:05:57.503Z,69.4